Time;durP1;ratioP1;P1;durP2;ratioP2;P2;SDS_P1;SDS_P2;PMS_P1;PMS_P2;Temp;Humidity;BMP_temperature;BMP_pressure;BME280_temperature;BME280_humidity;BME280_pressure;Samples;Min_cycle;Max_cycle;Signal;HPM_P1;HPM_P2
2023/10/17 00:01:33;;;;;;;19.85;9.35;;;8.50;99.90;;;;;;5097637;28;20151;-80
2023/10/17 00:06:38;;;;;;;26.27;11.70;;;8.60;99.90;;;;;;5097040;28;20056;-76
2023/10/17 00:09:07;;;;;;;29.45;13.43;;;8.60;99.90;;;;;;5097283;28;20047;-80
2023/10/17 00:11:47;;;;;;;32.90;14.40;;;8.60;99.90;;;;;;5097322;28;20155;-81
2023/10/17 00:14:12;;;;;;;32.88;14.10;;;8.60;99.90;;;;;;5097634;28;20043;-80
2023/10/17 00:16:38;;;;;;;31.42;14.25;;;8.60;99.90;;;;;;5115472;28;20074;-76
2023/10/17 00:19:05;;;;;;;40.22;15.57;;;8.60;99.90;;;;;;5097066;28;20050;-79
2023/10/17 00:21:33;;;;;;;42.97;15.90;;;8.60;99.90;;;;;;5096989;28;20043;-81
2023/10/17 00:24:08;;;;;;;40.47;15.23;;;8.60;99.90;;;;;;5096828;28;20127;-79
2023/10/17 00:26:37;;;;;;;33.95;14.27;;;8.60;99.90;;;;;;5098717;28;20043;-80
2023/10/17 00:29:10;;;;;;;27.52;11.48;;;8.60;99.90;;;;;;5063519;28;20047;-80
2023/10/17 00:31:37;;;;;;;24.35;9.95;;;8.70;99.90;;;;;;5063321;28;20048;-79
2023/10/17 00:34:13;;;;;;;26.65;11.10;;;8.60;99.90;;;;;;5114624;28;20576;-79
2023/10/17 00:37:00;;;;;;;20.60;8.98;;;8.60;99.90;;;;;;5115285;28;20044;-81
2023/10/17 00:39:29;;;;;;;20.45;9.48;;;8.70;99.90;;;;;;5097108;28;20052;-80
2023/10/17 00:44:36;;;;;;;25.80;9.80;;;8.60;99.90;;;;;;5096774;28;20079;-80
2023/10/17 00:47:04;;;;;;;24.83;10.63;;;8.70;99.90;;;;;;5080416;28;20051;-80
2023/10/17 00:49:37;;;;;;;23.33;10.18;;;8.70;99.90;;;;;;5115032;28;20129;-81
2023/10/17 00:52:04;;;;;;;22.33;8.90;;;8.70;99.90;;;;;;5080228;28;20278;-80
2023/10/17 00:54:32;;;;;;;16.83;8.20;;;8.70;99.90;;;;;;5096107;28;20058;-80
2023/10/17 00:57:05;;;;;;;15.65;8.43;;;8.70;99.90;;;;;;5114125;28;20049;-80
2023/10/17 00:59:31;;;;;;;17.67;7.53;;;8.70;99.90;;;;;;5096878;28;20101;-81
2023/10/17 01:01:57;;;;;;;15.32;7.15;;;8.70;99.90;;;;;;5114201;28;20126;-81
2023/10/17 01:04:24;;;;;;;11.75;6.00;;;8.70;99.90;;;;;;5096176;28;20052;-81
2023/10/17 01:06:54;;;;;;;11.70;5.40;;;8.70;99.90;;;;;;5095993;28;20051;-80
2023/10/17 01:09:24;;;;;;;14.55;6.00;;;8.70;99.90;;;;;;5096593;28;20408;-80
2023/10/17 01:11:54;;;;;;;15.90;6.20;;;8.70;99.90;;;;;;5096265;28;20115;-78
2023/10/17 01:14:20;;;;;;;13.75;6.28;;;8.70;99.90;;;;;;5096287;28;20535;-80
2023/10/17 01:16:56;;;;;;;13.65;6.20;;;8.70;99.90;;;;;;5114941;28;20086;-80
2023/10/17 01:19:22;;;;;;;15.63;6.03;;;8.60;99.90;;;;;;5064526;28;20055;-79
2023/10/17 01:21:48;;;;;;;12.15;6.25;;;8.70;99.90;;;;;;5096319;28;20054;-75
2023/10/17 01:24:17;;;;;;;14.23;6.53;;;8.60;99.90;;;;;;5095825;28;20152;-80
2023/10/17 01:26:46;;;;;;;13.27;6.75;;;8.60;99.90;;;;;;5114448;28;20039;-80
2023/10/17 01:29:12;;;;;;;12.52;6.05;;;8.60;99.90;;;;;;5095418;28;20529;-81
2023/10/17 01:31:42;;;;;;;10.57;5.40;;;8.60;99.90;;;;;;5114102;28;20052;-80
2023/10/17 01:34:08;;;;;;;10.52;5.78;;;8.60;99.90;;;;;;5113452;28;20100;-81
2023/10/17 01:36:37;;;;;;;12.93;5.50;;;8.60;99.90;;;;;;5095796;28;20054;-79
2023/10/17 01:39:08;;;;;;;13.02;5.57;;;8.60;99.90;;;;;;5095616;28;20055;-79
2023/10/17 01:41:34;;;;;;;10.90;5.55;;;8.50;99.90;;;;;;5079136;28;20052;-80
2023/10/17 01:44:01;;;;;;;11.68;5.30;;;8.50;99.90;;;;;;5078872;28;20059;-79
2023/10/17 01:46:30;;;;;;;12.65;5.88;;;8.50;99.90;;;;;;5096493;28;20056;-80
2023/10/17 01:48:59;;;;;;;10.23;4.97;;;8.50;99.90;;;;;;5113459;28;20106;-79
2023/10/17 01:51:27;;;;;;;10.43;4.93;;;8.50;99.90;;;;;;5095351;28;20054;-80
2023/10/17 01:53:53;;;;;;;11.30;5.80;;;8.50;99.90;;;;;;5112625;28;20138;-77
2023/10/17 01:56:26;;;;;;;9.00;5.15;;;8.50;99.90;;;;;;5113388;28;20116;-80
2023/10/17 01:59:04;;;;;;;10.98;5.40;;;8.50;99.90;;;;;;5113523;28;20043;-75
2023/10/17 02:01:31;;;;;;;10.73;4.68;;;8.50;99.90;;;;;;5095516;28;20054;-79
2023/10/17 02:04:13;;;;;;;8.90;5.03;;;8.50;99.90;;;;;;5078359;28;20100;-80
2023/10/17 02:06:39;;;;;;;13.85;5.78;;;8.50;99.90;;;;;;5095252;28;20047;-79
2023/10/17 02:11:57;;;;;;;13.40;5.90;;;8.50;99.90;;;;;;5095416;28;20048;-79
2023/10/17 02:14:23;;;;;;;12.55;5.20;;;8.40;99.90;;;;;;5095292;28;20043;-80
2023/10/17 02:16:49;;;;;;;9.40;4.80;;;8.40;99.90;;;;;;5112976;28;20509;-80
2023/10/17 02:19:16;;;;;;;10.88;5.00;;;8.40;99.90;;;;;;5094739;28;20742;-80
2023/10/17 02:21:43;;;;;;;8.70;4.90;;;8.40;99.90;;;;;;5095157;28;20078;-79
2023/10/17 02:24:10;;;;;;;12.07;5.35;;;8.40;99.90;;;;;;5094871;28;20134;-78
2023/10/17 02:26:42;;;;;;;13.35;5.07;;;8.30;99.90;;;;;;5095490;28;20094;-82
2023/10/17 02:29:12;;;;;;;9.02;4.82;;;8.20;99.90;;;;;;5094744;28;20056;-81
2023/10/17 02:31:40;;;;;;;9.60;5.10;;;8.10;99.90;;;;;;5095327;28;20040;-81
2023/10/17 02:34:09;;;;;;;9.50;4.82;;;8.10;99.90;;;;;;5094601;28;20091;-82
2023/10/17 02:36:35;;;;;;;8.38;4.80;;;8.00;99.90;;;;;;5078622;28;20050;-80
2023/10/17 02:39:01;;;;;;;9.32;4.65;;;8.00;99.90;;;;;;5112444;28;20044;-80
2023/10/17 02:41:28;;;;;;;7.80;4.38;;;8.00;99.90;;;;;;5077963;28;20047;-80
2023/10/17 02:43:54;;;;;;;9.68;4.55;;;7.90;99.90;;;;;;5079187;28;20131;-80
2023/10/17 02:46:27;;;;;;;9.20;4.38;;;7.90;99.90;;;;;;5094358;28;20665;-80
2023/10/17 02:48:57;;;;;;;7.00;3.95;;;7.90;99.90;;;;;;5112768;28;20047;-80
2023/10/17 02:53:55;;;;;;;8.35;3.78;;;7.80;99.90;;;;;;5112723;28;20055;-81
2023/10/17 02:56:22;;;;;;;9.15;4.25;;;7.80;99.90;;;;;;5097529;28;20042;-80
2023/10/17 02:59:10;;;;;;;7.30;3.90;;;7.80;99.90;;;;;;5117169;28;20039;-80
2023/10/17 03:01:39;;;;;;;7.28;3.83;;;7.80;99.90;;;;;;5099089;28;20055;-80
2023/10/17 03:04:11;;;;;;;7.00;3.92;;;7.80;99.90;;;;;;5098420;28;20065;-80
2023/10/17 03:06:41;;;;;;;7.10;3.80;;;7.70;99.90;;;;;;5116950;28;20050;-81
2023/10/17 03:12:07;;;;;;;8.38;4.15;;;7.70;99.90;;;;;;5098598;28;20051;-80
2023/10/17 03:17:25;;;;;;;6.85;4.10;;;7.60;99.90;;;;;;5059721;28;20538;-81
2023/10/17 03:19:51;;;;;;;8.52;3.78;;;7.50;99.90;;;;;;5097883;28;20055;-80
2023/10/17 03:22:24;;;;;;;9.65;4.20;;;7.40;99.90;;;;;;5097991;28;20100;-79
2023/10/17 03:24:51;;;;;;;10.98;4.38;;;7.40;99.90;;;;;;5081757;28;20097;-81
2023/10/17 03:27:33;;;;;;;8.82;4.30;;;7.40;99.90;;;;;;5097991;28;20120;-81
2023/10/17 03:30:11;;;;;;;8.85;3.78;;;7.40;99.90;;;;;;5081196;28;20530;-80
2023/10/17 03:35:24;;;;;;;7.65;3.95;;;7.30;99.90;;;;;;5097614;28;20524;-81
2023/10/17 03:37:49;;;;;;;7.05;4.20;;;7.30;99.90;;;;;;5116372;28;20043;-81
2023/10/17 03:40:30;;;;;;;8.05;3.92;;;7.30;99.90;;;;;;5097697;28;20500;-79
2023/10/17 03:43:15;;;;;;;7.63;3.85;;;7.20;99.90;;;;;;5081270;28;20055;-79
2023/10/17 03:45:51;;;;;;;8.93;4.07;;;7.20;99.90;;;;;;5097712;28;20489;-81
2023/10/17 03:48:20;;;;;;;6.22;3.92;;;7.20;99.90;;;;;;5097773;28;20062;-80
2023/10/17 03:53:15;;;;;;;5.25;3.60;;;7.20;99.90;;;;;;5096837;28;20058;-79
2023/10/17 03:55:51;;;;;;;6.15;3.17;;;7.20;99.90;;;;;;5115790;28;20547;-80
2023/10/17 04:00:54;;;;;;;7.40;3.72;;;7.10;99.90;;;;;;5097710;28;20055;-80
2023/10/17 04:03:23;;;;;;;6.55;3.50;;;7.10;99.90;;;;;;5080336;28;20082;-80
2023/10/17 04:05:52;;;;;;;6.68;3.95;;;7.10;99.90;;;;;;5097961;28;20047;-80
2023/10/17 04:08:19;;;;;;;7.50;3.58;;;7.10;99.90;;;;;;5097316;28;20132;-80
2023/10/17 04:13:37;;;;;;;5.82;3.88;;;7.20;99.90;;;;;;5097483;28;20631;-81
2023/10/17 04:16:14;;;;;;;8.68;3.80;;;7.20;99.90;;;;;;5081440;28;20043;-81
2023/10/17 04:18:40;;;;;;;8.60;4.20;;;7.30;99.90;;;;;;5097884;28;20489;-81
2023/10/17 04:21:17;;;;;;;9.05;4.07;;;7.30;99.90;;;;;;5115815;28;20078;-80
2023/10/17 04:23:49;;;;;;;9.68;4.28;;;7.30;99.90;;;;;;5097625;28;20539;-81
2023/10/17 04:26:18;;;;;;;6.75;4.38;;;7.30;99.90;;;;;;5097460;28;20130;-79
2023/10/17 04:28:50;;;;;;;8.05;4.88;;;7.30;99.90;;;;;;5099061;28;20044;-82
2023/10/17 04:31:36;;;;;;;12.35;5.15;;;7.40;99.90;;;;;;5103531;28;20042;-79
2023/10/17 04:34:06;;;;;;;7.28;4.40;;;7.40;99.90;;;;;;5084293;28;20101;-79
2023/10/17 04:36:39;;;;;;;7.65;4.40;;;7.50;99.90;;;;;;5099308;28;20048;-81
2023/10/17 04:42:04;;;;;;;6.45;3.90;;;7.40;99.90;;;;;;5099120;28;20150;-80
2023/10/17 04:44:34;;;;;;;6.43;4.10;;;7.40;99.90;;;;;;5098996;28;20043;-80
2023/10/17 04:49:30;;;;;;;13.07;3.97;;;7.40;99.90;;;;;;5098478;28;20062;-80
2023/10/17 04:52:06;;;;;;;8.05;4.13;;;7.40;99.90;;;;;;5098011;28;20130;-80
2023/10/17 04:57:04;;;;;;;8.52;4.35;;;7.50;99.90;;;;;;5097255;28;20069;-80
2023/10/17 05:07:28;;;;;;;9.63;4.50;;;7.50;99.90;;;;;;5096405;28;20051;-80
2023/10/17 06:18:32;;;;;;;10.02;4.80;;;7.90;99.90;;;;;;5095179;28;20048;-80
2023/10/17 06:21:17;;;;;;;8.57;4.88;;;7.90;99.90;;;;;;5095046;28;20063;-77
2023/10/17 06:34:20;;;;;;;11.38;5.40;;;8.10;99.90;;;;;;5095842;28;20162;-81
2023/10/17 06:36:50;;;;;;;15.25;6.47;;;8.10;99.90;;;;;;5112707;28;20047;-82
2023/10/17 06:39:18;;;;;;;16.58;5.75;;;8.10;99.90;;;;;;5094958;28;20181;-82
2023/10/17 06:41:47;;;;;;;10.77;5.30;;;8.10;99.90;;;;;;5077465;28;20071;-79
2023/10/17 06:44:33;;;;;;;11.00;5.50;;;8.20;99.90;;;;;;5094354;28;20044;-76
2023/10/17 06:47:16;;;;;;;9.57;5.38;;;8.10;99.90;;;;;;5094832;28;20400;-78
2023/10/17 06:52:18;;;;;;;13.35;4.80;;;8.20;99.90;;;;;;5114754;28;20069;-88
2023/10/17 06:54:58;;;;;;;7.60;4.80;;;8.20;99.90;;;;;;5080874;28;20533;-82
2023/10/17 06:57:24;;;;;;;10.13;5.15;;;8.30;99.90;;;;;;5095037;28;20065;-82
2023/10/17 06:59:54;;;;;;;13.73;5.18;;;8.30;99.90;;;;;;5094338;28;20047;-81
2023/10/17 07:02:29;;;;;;;10.40;4.70;;;8.30;99.90;;;;;;5077932;28;20508;-84
2023/10/17 07:04:55;;;;;;;9.05;4.60;;;8.30;99.90;;;;;;5112233;28;20472;-83
2023/10/17 07:07:31;;;;;;;10.82;5.18;;;8.40;99.90;;;;;;5094991;28;20043;-81
2023/10/17 07:12:41;;;;;;;13.05;4.25;;;8.40;99.90;;;;;;5095992;28;20181;-84
2023/10/17 07:15:18;;;;;;;7.22;3.95;;;8.40;99.90;;;;;;5080376;28;20191;-81
2023/10/17 07:18:39;;;;;;;7.78;4.18;;;8.50;99.90;;;;;;5063998;28;20048;-82
2023/10/17 07:23:26;;;;;;;11.93;3.40;;;8.50;99.90;;;;;;5081827;28;20115;-82
2023/10/17 07:25:56;;;;;;;8.70;3.33;;;8.50;99.90;;;;;;5080321;28;20108;-86
2023/10/17 07:28:22;;;;;;;8.43;3.45;;;8.50;99.90;;;;;;5096601;28;20426;-79
2023/10/17 07:30:57;;;;;;;8.80;3.70;;;8.50;99.90;;;;;;5095951;28;20039;-81
2023/10/17 07:33:24;;;;;;;8.43;3.58;;;8.50;99.90;;;;;;5066960;28;20477;-81
2023/10/17 07:35:56;;;;;;;8.73;3.75;;;8.60;99.90;;;;;;5097974;28;20047;-83
2023/10/17 07:38:27;;;;;;;6.95;3.55;;;8.70;99.90;;;;;;5100074;28;20069;-81
2023/10/17 07:41:09;;;;;;;8.30;3.58;;;8.80;99.90;;;;;;5101925;28;20057;-81
2023/10/17 07:43:35;;;;;;;8.30;3.58;;;8.90;99.90;;;;;;5088483;28;20047;-83
2023/10/17 07:46:07;;;;;;;10.73;4.05;;;8.90;99.90;;;;;;5122224;28;20039;-82
2023/10/17 07:48:34;;;;;;;8.27;3.65;;;8.90;99.90;;;;;;5106618;28;20052;-82
2023/10/17 07:51:00;;;;;;;7.75;3.83;;;9.00;99.90;;;;;;5088540;28;20073;-81
2023/10/17 07:53:32;;;;;;;6.50;3.63;;;9.10;99.90;;;;;;5102613;28;20043;-83
2023/10/17 07:56:12;;;;;;;10.25;3.60;;;9.30;99.90;;;;;;5086045;28;20048;-82
2023/10/17 07:58:45;;;;;;;6.75;3.22;;;9.90;99.90;;;;;;5086682;28;20349;-84
2023/10/17 08:01:14;;;;;;;7.75;3.67;;;11.00;99.90;;;;;;5072961;28;20050;-84
2023/10/17 08:03:43;;;;;;;6.13;3.47;;;11.80;99.90;;;;;;5104579;28;20409;-84
2023/10/17 08:06:12;;;;;;;9.13;3.38;;;12.10;99.90;;;;;;5122849;28;20039;-84
2023/10/17 08:08:44;;;;;;;6.75;3.50;;;12.00;99.90;;;;;;5087241;28;20130;-84
2023/10/17 08:11:31;;;;;;;7.10;3.47;;;11.80;99.90;;;;;;5067257;28;20043;-84
2023/10/17 08:14:08;;;;;;;8.52;3.13;;;11.50;99.90;;;;;;5099209;28;20434;-84
2023/10/17 08:16:39;;;;;;;7.57;3.08;;;11.20;99.90;;;;;;5080960;28;20059;-81
2023/10/17 08:19:29;;;;;;;5.93;2.83;;;10.80;99.90;;;;;;5117565;28;20094;-81
2023/10/17 08:24:40;;;;;;;12.07;5.22;;;10.40;99.90;;;;;;5082441;28;20062;-76
2023/10/17 08:30:38;;;;;;;8.25;3.33;;;12.10;99.90;;;;;;5082311;28;20085;-76
2023/10/17 08:32:39;;;;;;;9.90;3.75;;;13.40;99.90;;;;;;5082317;28;20492;-76
2023/10/17 08:35:19;;;;;;;9.13;3.78;;;14.40;99.90;;;;;;5114724;28;20044;-76
2023/10/17 08:37:45;;;;;;;10.70;4.50;;;15.20;99.90;;;;;;5096751;28;20047;-76
2023/10/17 08:40:32;;;;;;;8.85;4.10;;;15.80;99.90;;;;;;5079692;28;20055;-76
2023/10/17 08:43:06;;;;;;;8.38;3.88;;;16.50;99.90;;;;;;5096044;28;20040;-77
2023/10/17 08:45:38;;;;;;;7.25;3.72;;;16.80;99.90;;;;;;5114942;28;20035;-76
2023/10/17 08:48:09;;;;;;;8.50;3.42;;;16.10;99.90;;;;;;5114338;28;20055;-75
2023/10/17 08:50:38;;;;;;;8.68;3.58;;;15.50;99.90;;;;;;5096289;28;20055;-76
2023/10/17 08:55:43;;;;;;;8.75;4.00;;;14.50;99.90;;;;;;5092887;28;20056;-76
2023/10/17 08:58:09;;;;;;;9.30;4.07;;;14.20;99.90;;;;;;5092581;28;20167;-74
2023/10/17 09:03:20;;;;;;;6.53;2.97;;;13.80;99.90;;;;;;5092864;28;20051;-76
2023/10/17 09:05:58;;;;;;;6.93;2.80;;;13.60;99.90;;;;;;5076363;28;20131;-75
2023/10/17 09:11:14;;;;;;;4.25;1.60;;;13.30;99.90;;;;;;5092129;28;20043;-75
2023/10/17 09:16:15;;;;;;;8.75;2.80;;;13.00;99.90;;;;;;5092438;28;20375;-75
2023/10/17 09:18:49;;;;;;;8.57;2.33;;;12.90;99.90;;;;;;5092890;28;20044;-74
2023/10/17 09:21:20;;;;;;;5.37;2.13;;;12.80;99.90;;;;;;5092209;28;20223;-75
2023/10/17 09:23:47;;;;;;;12.73;2.10;;;12.70;99.90;;;;;;5093519;28;20613;-79
2023/10/17 09:26:23;;;;;;;5.03;1.52;;;12.60;99.90;;;;;;5092961;28;20040;-80
2023/10/17 09:28:59;;;;;;;4.25;1.65;;;12.50;99.90;;;;;;5093757;28;20087;-80
2023/10/17 09:31:26;;;;;;;7.88;1.98;;;12.40;99.90;;;;;;5061960;28;20047;-81
2023/10/17 09:33:53;;;;;;;6.40;2.35;;;12.40;99.90;;;;;;5092972;28;20131;-80
2023/10/17 09:36:19;;;;;;;6.00;2.88;;;12.30;99.90;;;;;;5059748;28;20048;-80
2023/10/17 09:38:46;;;;;;;8.27;2.67;;;12.30;99.90;;;;;;5073598;28;20062;-81
2023/10/17 09:41:17;;;;;;;6.53;2.67;;;12.30;99.90;;;;;;5092609;28;20044;-83
2023/10/17 09:43:47;;;;;;;5.50;2.75;;;12.40;99.90;;;;;;5097221;28;20394;-82
2023/10/17 09:46:13;;;;;;;3.63;2.25;;;12.40;99.90;;;;;;5088743;28;20047;-78
2023/10/17 09:48:42;;;;;;;6.15;2.30;;;12.40;99.90;;;;;;5091822;28;20058;-78
2023/10/17 09:51:14;;;;;;;4.00;2.10;;;12.40;99.90;;;;;;5074311;28;20055;-79
2023/10/17 09:53:41;;;;;;;7.45;2.45;;;12.30;99.90;;;;;;5093665;28;20106;-77
2023/10/17 09:56:15;;;;;;;6.75;2.40;;;12.30;99.90;;;;;;5094869;28;20051;-78
2023/10/17 09:58:45;;;;;;;4.32;1.83;;;12.30;99.90;;;;;;5095979;28;20100;-79
2023/10/17 10:01:14;;;;;;;4.60;2.47;;;12.30;99.90;;;;;;5095136;28;20485;-78
2023/10/17 10:03:41;;;;;;;4.45;1.95;;;12.30;99.90;;;;;;5078794;28;20058;-80
2023/10/17 10:06:30;;;;;;;8.57;2.15;;;12.30;99.90;;;;;;5094950;28;20047;-79
2023/10/17 10:09:13;;;;;;;5.10;1.77;;;12.30;99.90;;;;;;5077998;28;20057;-78
2023/10/17 10:11:48;;;;;;;5.15;1.60;;;12.30;99.90;;;;;;5078513;28;20044;-77
2023/10/17 10:14:23;;;;;;;5.35;1.90;;;12.30;99.90;;;;;;5095094;28;20074;-74
2023/10/17 10:16:53;;;;;;;7.18;2.28;;;12.30;99.90;;;;;;5095654;28;20044;-82
2023/10/17 10:19:20;;;;;;;6.75;2.00;;;12.40;99.90;;;;;;5094488;28;20565;-81
2023/10/17 10:21:59;;;;;;;3.70;1.98;;;12.40;99.90;;;;;;5078457;28;20082;-81
2023/10/17 10:24:26;;;;;;;7.30;2.22;;;12.50;99.90;;;;;;5094885;28;20384;-80
2023/10/17 10:27:25;;;;;;;5.32;1.83;;;12.40;99.90;;;;;;5095088;28;20093;-80
2023/10/17 10:30:17;;;;;;;5.65;2.28;;;12.30;99.90;;;;;;5076075;28;20063;-81
2023/10/17 10:32:44;;;;;;;9.35;2.55;;;12.40;99.90;;;;;;5064601;28;20043;-81
2023/10/17 10:35:11;;;;;;;6.47;2.05;;;12.50;99.90;;;;;;5061091;28;20466;-81
2023/10/17 10:37:54;;;;;;;9.40;2.50;;;12.50;99.90;;;;;;5078349;28;20047;-81
2023/10/17 10:40:25;;;;;;;5.03;2.22;;;12.50;99.90;;;;;;5077994;28;20058;-81
2023/10/17 10:42:58;;;;;;;9.85;2.45;;;12.50;99.90;;;;;;5113331;28;20085;-80
2023/10/17 10:45:40;;;;;;;7.43;3.20;;;12.40;99.90;;;;;;5094522;28;20070;-80
2023/10/17 10:48:17;;;;;;;8.27;3.20;;;12.50;99.90;;;;;;5094768;28;20051;-83
2023/10/17 10:50:44;;;;;;;7.93;3.13;;;12.60;99.90;;;;;;5113124;28;20442;-79
2023/10/17 10:53:39;;;;;;;5.65;2.42;;;12.60;99.90;;;;;;5094504;28;20047;-81
2023/10/17 10:56:15;;;;;;;7.20;2.85;;;12.70;99.90;;;;;;5060647;28;20465;-81
2023/10/17 10:58:51;;;;;;;6.25;2.22;;;12.70;99.90;;;;;;5095161;28;20047;-81
2023/10/17 11:01:18;;;;;;;5.93;2.85;;;12.70;99.90;;;;;;5094759;28;20449;-82
2023/10/17 11:03:48;;;;;;;8.45;3.25;;;12.70;99.90;;;;;;5095063;28;20497;-81
2023/10/17 11:06:18;;;;;;;5.68;2.22;;;12.60;99.90;;;;;;5094842;28;20046;-81
2023/10/17 11:08:46;;;;;;;4.85;1.90;;;12.70;99.90;;;;;;5078591;28;20146;-81
2023/10/17 11:11:16;;;;;;;5.15;2.05;;;12.60;99.90;;;;;;5094372;28;20040;-80
2023/10/17 11:13:46;;;;;;;8.25;2.00;;;12.60;99.90;;;;;;5094915;28;20044;-81
2023/10/17 11:16:16;;;;;;;5.35;2.30;;;12.60;99.90;;;;;;5095148;28;20043;-80
2023/10/17 11:18:43;;;;;;;8.13;2.05;;;12.60;99.90;;;;;;5099619;28;20079;-80
2023/10/17 11:21:09;;;;;;;6.85;2.25;;;12.80;99.90;;;;;;5098821;28;20118;-84
2023/10/17 11:23:47;;;;;;;3.88;2.00;;;12.80;99.90;;;;;;5065378;28;20066;-85
2023/10/17 11:26:17;;;;;;;6.90;2.08;;;12.90;99.90;;;;;;5082114;28;20044;-86
2023/10/17 11:28:46;;;;;;;5.43;2.00;;;12.90;99.90;;;;;;5099057;28;20455;-80
2023/10/17 11:31:27;;;;;;;3.97;1.88;;;12.90;99.90;;;;;;5048878;28;20043;-79
2023/10/17 11:34:04;;;;;;;6.80;1.70;;;12.90;99.90;;;;;;5099916;28;20112;-79
2023/10/17 11:36:35;;;;;;;5.57;1.60;;;12.90;99.90;;;;;;5097913;28;20519;-78
2023/10/17 11:39:05;;;;;;;4.97;1.98;;;12.80;99.90;;;;;;5081410;28;20047;-79
2023/10/17 11:41:39;;;;;;;5.25;1.58;;;12.90;99.90;;;;;;5081048;28;20040;-79
2023/10/17 11:44:09;;;;;;;2.95;1.50;;;12.90;99.90;;;;;;5082728;28;20048;-78
2023/10/17 11:46:37;;;;;;;5.00;1.70;;;12.90;99.90;;;;;;5097623;28;20047;-78
2023/10/17 11:49:26;;;;;;;5.60;2.15;;;12.90;99.90;;;;;;5081311;28;20066;-78
2023/10/17 11:52:12;;;;;;;2.60;1.45;;;13.00;99.90;;;;;;5080774;28;20035;-78
2023/10/17 11:55:00;;;;;;;4.63;1.52;;;13.00;99.90;;;;;;5078939;28;20043;-77
2023/10/17 11:57:27;;;;;;;5.22;1.70;;;13.00;99.90;;;;;;5096783;28;20044;-77
2023/10/17 12:00:23;;;;;;;6.70;1.88;;;13.00;99.90;;;;;;5097768;28;20051;-72
2023/10/17 12:02:48;;;;;;;8.30;1.60;;;13.00;99.90;;;;;;5097201;28;20101;-75
2023/10/17 12:05:18;;;;;;;3.05;1.58;;;13.00;99.90;;;;;;5115474;28;20043;-78
2023/10/17 12:07:59;;;;;;;3.28;1.65;;;13.00;99.90;;;;;;5080757;28;20048;-72
2023/10/17 12:10:26;;;;;;;4.55;1.85;;;12.90;99.90;;;;;;5096821;28;20396;-76
2023/10/17 12:12:52;;;;;;;3.13;1.45;;;13.00;99.90;;;;;;5096955;28;20116;-78
2023/10/17 12:15:20;;;;;;;3.70;1.48;;;13.00;99.90;;;;;;5114558;28;20100;-78
2023/10/17 12:17:49;;;;;;;5.57;1.70;;;12.90;99.90;;;;;;5097249;28;20044;-77
2023/10/17 12:20:40;;;;;;;2.33;1.50;;;13.00;99.90;;;;;;5097070;28;20047;-79
2023/10/17 12:23:04;;;;;;;9.05;2.03;;;13.00;99.90;;;;;;5096528;28;20095;-78
2023/10/17 12:25:32;;;;;;;7.10;1.83;;;13.00;99.90;;;;;;5114742;28;20130;-78
2023/10/17 12:27:58;;;;;;;5.43;1.50;;;13.00;99.90;;;;;;5080702;28;20051;-81
2023/10/17 12:30:28;;;;;;;2.28;1.40;;;12.90;99.90;;;;;;5080628;28;20039;-81
2023/10/17 12:32:57;;;;;;;6.38;1.90;;;13.00;99.90;;;;;;5098921;28;20047;-81
2023/10/17 12:35:27;;;;;;;3.40;1.60;;;13.00;99.90;;;;;;5098031;28;20107;-80
2023/10/17 12:37:57;;;;;;;3.00;1.45;;;13.10;99.90;;;;;;5098114;28;20044;-78
2023/10/17 12:40:23;;;;;;;4.47;1.63;;;13.10;99.90;;;;;;5063660;28;20051;-76
2023/10/17 12:42:50;;;;;;;3.53;1.50;;;13.10;99.90;;;;;;5079092;28;20036;-78
2023/10/17 12:45:17;;;;;;;6.60;1.48;;;13.10;99.90;;;;;;5096593;28;20134;-78
2023/10/17 12:47:43;;;;;;;2.72;1.35;;;13.00;99.90;;;;;;5096466;28;20055;-77
2023/10/17 12:50:13;;;;;;;5.95;1.88;;;13.00;99.90;;;;;;5096525;28;20051;-78
2023/10/17 12:52:39;;;;;;;6.43;1.95;;;13.10;99.90;;;;;;5079136;28;20100;-79
2023/10/17 12:55:07;;;;;;;3.03;1.73;;;13.00;99.90;;;;;;5096387;28;20074;-76
2023/10/17 12:57:38;;;;;;;6.55;2.00;;;13.00;99.90;;;;;;5114477;28;20069;-80
2023/10/17 13:00:09;;;;;;;6.38;1.90;;;12.90;99.90;;;;;;5080301;28;20150;-76
2023/10/17 13:02:41;;;;;;;5.03;2.00;;;12.90;99.90;;;;;;5078904;28;20097;-76
2023/10/17 13:05:10;;;;;;;3.33;1.55;;;12.90;99.90;;;;;;5096485;28;20389;-78
2023/10/17 13:07:38;;;;;;;5.32;1.95;;;12.90;99.90;;;;;;5095911;28;20043;-79
2023/10/17 13:10:06;;;;;;;4.47;1.85;;;12.90;99.90;;;;;;5096415;28;20044;-75
2023/10/17 13:12:32;;;;;;;5.15;2.25;;;12.90;99.90;;;;;;5078921;28;20451;-78
2023/10/17 13:14:58;;;;;;;5.40;1.83;;;12.90;99.90;;;;;;5096235;28;20051;-77
2023/10/17 13:17:25;;;;;;;5.47;2.17;;;12.80;99.90;;;;;;5078917;28;20067;-81
2023/10/17 13:19:51;;;;;;;3.60;1.90;;;12.80;99.90;;;;;;5096264;28;20063;-76
2023/10/17 13:22:20;;;;;;;4.80;2.00;;;12.80;99.90;;;;;;5095816;28;20048;-79
2023/10/17 13:24:48;;;;;;;7.68;1.90;;;12.90;99.90;;;;;;5095680;28;20043;-77
2023/10/17 13:27:15;;;;;;;4.13;1.92;;;12.90;99.90;;;;;;5096088;28;20040;-78
2023/10/17 13:29:42;;;;;;;6.40;1.80;;;12.90;99.90;;;;;;5095628;28;20047;-77
2023/10/17 13:32:07;;;;;;;4.57;1.90;;;12.90;99.90;;;;;;5062277;28;20044;-74
2023/10/17 13:34:39;;;;;;;4.63;1.90;;;12.90;99.90;;;;;;5113307;28;20047;-78
2023/10/17 13:37:05;;;;;;;6.75;1.90;;;12.90;99.90;;;;;;5095678;28;20058;-79
2023/10/17 13:39:34;;;;;;;5.90;1.63;;;12.80;99.90;;;;;;5061598;28;20389;-77
2023/10/17 13:42:02;;;;;;;4.57;1.70;;;12.80;99.90;;;;;;5062388;28;20047;-78
2023/10/17 13:44:28;;;;;;;2.70;1.52;;;12.80;99.90;;;;;;5078107;28;20092;-77
2023/10/17 13:46:55;;;;;;;4.45;1.70;;;12.80;99.90;;;;;;5078944;28;20144;-77
2023/10/17 13:49:21;;;;;;;4.85;1.73;;;12.80;99.90;;;;;;5078745;28;20147;-76
2023/10/17 13:51:47;;;;;;;3.40;1.88;;;12.80;99.90;;;;;;5095103;28;20044;-75
2023/10/17 13:54:14;;;;;;;3.33;1.50;;;12.80;99.90;;;;;;5061678;28;20138;-76
2023/10/17 13:56:41;;;;;;;6.50;1.70;;;12.80;99.90;;;;;;5077555;28;20063;-75
2023/10/17 13:59:11;;;;;;;7.05;1.63;;;12.80;99.90;;;;;;5095217;28;20039;-75
2023/10/17 14:01:45;;;;;;;3.30;1.42;;;12.80;99.90;;;;;;5094892;28;20035;-74
2023/10/17 14:04:11;;;;;;;3.83;1.38;;;12.70;99.90;;;;;;5095223;28;20081;-75
2023/10/17 14:06:42;;;;;;;2.65;1.60;;;12.60;99.90;;;;;;5078160;28;20039;-74
2023/10/17 14:09:14;;;;;;;2.45;1.40;;;12.60;99.90;;;;;;5078310;28;20048;-75
2023/10/17 14:11:46;;;;;;;6.47;1.65;;;12.60;99.90;;;;;;5078563;28;20044;-75
2023/10/17 14:14:13;;;;;;;5.40;1.52;;;12.60;99.90;;;;;;5095011;28;20092;-75
2023/10/17 14:16:43;;;;;;;3.30;1.60;;;12.60;99.90;;;;;;5061608;28;20108;-74
2023/10/17 14:19:18;;;;;;;4.68;1.50;;;12.60;99.90;;;;;;5095148;28;20058;-75
2023/10/17 14:24:38;;;;;;;5.53;1.42;;;12.60;99.90;;;;;;5066931;28;20058;-80
2023/10/17 14:27:11;;;;;;;4.78;1.40;;;12.50;99.90;;;;;;5078485;28;20506;-76
2023/10/17 14:29:41;;;;;;;3.92;1.58;;;12.50;99.90;;;;;;5094624;28;20057;-78
2023/10/17 14:32:08;;;;;;;2.33;1.30;;;12.50;99.90;;;;;;5094819;28;20396;-76
2023/10/17 14:34:37;;;;;;;4.50;1.52;;;12.50;99.90;;;;;;5078307;28;20130;-79
2023/10/17 14:37:05;;;;;;;5.22;1.60;;;12.50;99.90;;;;;;5078596;28;20044;-76
2023/10/17 14:39:32;;;;;;;3.05;1.17;;;12.50;99.90;;;;;;5094810;28;20047;-75
2023/10/17 14:41:57;;;;;;;4.00;1.48;;;12.50;99.90;;;;;;5094145;28;20055;-76
2023/10/17 14:44:24;;;;;;;1.23;1.00;;;12.50;99.90;;;;;;5078090;28;20044;-76
2023/10/17 14:46:52;;;;;;;3.22;1.13;;;12.50;99.90;;;;;;5077154;28;20501;-74
2023/10/17 14:49:21;;;;;;;3.42;1.20;;;12.50;99.90;;;;;;5112322;28;20046;-74
2023/10/17 14:51:48;;;;;;;3.95;1.60;;;12.50;99.90;;;;;;5092889;28;20051;-75
2023/10/17 14:54:13;;;;;;;1.88;0.95;;;12.50;99.90;;;;;;5094594;28;20504;-75
2023/10/17 14:56:39;;;;;;;4.72;1.33;;;12.50;99.90;;;;;;5094213;28;20055;-75
2023/10/17 14:59:05;;;;;;;3.60;1.20;;;12.50;99.90;;;;;;5094596;28;20442;-77
2023/10/17 15:01:31;;;;;;;2.38;1.30;;;12.40;99.90;;;;;;5112634;28;20044;-79
2023/10/17 15:03:59;;;;;;;3.45;1.35;;;12.40;99.90;;;;;;5077437;28;20036;-74
2023/10/17 15:06:25;;;;;;;1.73;1.10;;;12.40;99.90;;;;;;5077868;28;20048;-77
2023/10/17 15:08:51;;;;;;;5.32;1.90;;;12.40;99.90;;;;;;5094121;28;20066;-79
2023/10/17 15:11:20;;;;;;;5.07;1.90;;;12.40;99.90;;;;;;5077940;28;20393;-79
2023/10/17 15:13:46;;;;;;;3.50;1.55;;;12.40;99.90;;;;;;5094226;28;20482;-78
2023/10/17 15:16:19;;;;;;;3.95;1.25;;;12.40;99.90;;;;;;5094593;28;20043;-77
2023/10/17 15:18:46;;;;;;;4.63;1.65;;;12.40;99.90;;;;;;5077312;28;20051;-77
2023/10/17 15:21:13;;;;;;;2.28;1.20;;;12.30;99.90;;;;;;5094577;28;20055;-78
2023/10/17 15:23:43;;;;;;;3.42;1.38;;;12.30;99.90;;;;;;5061088;28;20047;-79
2023/10/17 15:26:10;;;;;;;3.70;1.20;;;12.20;99.90;;;;;;5094404;28;20118;-78
2023/10/17 15:28:36;;;;;;;2.83;1.23;;;12.20;99.90;;;;;;5094433;28;20039;-77
2023/10/17 15:31:03;;;;;;;5.30;1.48;;;12.20;99.90;;;;;;5076999;28;20036;-78
2023/10/17 15:33:29;;;;;;;3.22;1.65;;;12.20;99.90;;;;;;5077465;28;20181;-77
2023/10/17 15:35:54;;;;;;;2.05;1.10;;;12.10;99.90;;;;;;5094102;28;20135;-75